sensor_id;sensor_type;location;lat;lon;timestamp;P1;durP1;ratioP1;P2;durP2;ratioP2
9860;SDS011;4969;52.304;4.968;2024-01-11T00:01:08;9.87;;;8.87;;
9860;SDS011;4969;52.304;4.968;2024-01-11T00:03:37;9.83;;;8.93;;
9860;SDS011;4969;52.304;4.968;2024-01-11T00:06:03;11.73;;;8.97;;
9860;SDS011;4969;52.304;4.968;2024-01-11T00:08:30;10.23;;;9.17;;
9860;SDS011;4969;52.304;4.968;2024-01-11T00:10:57;12.40;;;9.53;;
9860;SDS011;4969;52.304;4.968;2024-01-11T00:13:23;9.97;;;8.53;;
9860;SDS011;4969;52.304;4.968;2024-01-11T00:15:50;9.37;;;8.43;;
9860;SDS011;4969;52.304;4.968;2024-01-11T00:18:18;10.10;;;9.10;;
9860;SDS011;4969;52.304;4.968;2024-01-11T00:20:46;9.53;;;8.57;;
9860;SDS011;4969;52.304;4.968;2024-01-11T00:23:13;10.63;;;9.50;;
9860;SDS011;4969;52.304;4.968;2024-01-11T00:25:39;8.93;;;7.93;;
9860;SDS011;4969;52.304;4.968;2024-01-11T00:28:06;8.33;;;7.23;;
9860;SDS011;4969;52.304;4.968;2024-01-11T00:30:32;11.40;;;9.60;;
9860;SDS011;4969;52.304;4.968;2024-01-11T00:32:59;11.17;;;10.00;;
9860;SDS011;4969;52.304;4.968;2024-01-11T00:35:25;11.97;;;10.60;;
9860;SDS011;4969;52.304;4.968;2024-01-11T00:37:53;10.43;;;9.43;;
9860;SDS011;4969;52.304;4.968;2024-01-11T00:40:20;10.30;;;9.20;;
9860;SDS011;4969;52.304;4.968;2024-01-11T00:42:46;12.00;;;10.10;;
9860;SDS011;4969;52.304;4.968;2024-01-11T00:45:13;10.13;;;9.13;;
9860;SDS011;4969;52.304;4.968;2024-01-11T00:47:39;11.27;;;10.07;;
9860;SDS011;4969;52.304;4.968;2024-01-11T00:50:06;12.20;;;10.80;;
9860;SDS011;4969;52.304;4.968;2024-01-11T00:52:34;11.40;;;10.20;;
9860;SDS011;4969;52.304;4.968;2024-01-11T00:55:02;10.90;;;9.90;;
9860;SDS011;4969;52.304;4.968;2024-01-11T00:57:30;11.00;;;9.90;;
9860;SDS011;4969;52.304;4.968;2024-01-11T00:59:56;13.30;;;10.67;;
9860;SDS011;4969;52.304;4.968;2024-01-11T01:02:23;12.50;;;11.30;;
9860;SDS011;4969;52.304;4.968;2024-01-11T01:04:49;11.70;;;10.23;;
9860;SDS011;4969;52.304;4.968;2024-01-11T01:07:16;12.57;;;11.27;;
9860;SDS011;4969;52.304;4.968;2024-01-11T01:09:42;12.10;;;10.90;;
9860;SDS011;4969;52.304;4.968;2024-01-11T01:12:10;12.40;;;10.83;;
9860;SDS011;4969;52.304;4.968;2024-01-11T01:14:37;12.00;;;10.80;;
9860;SDS011;4969;52.304;4.968;2024-01-11T01:17:03;10.90;;;9.77;;
9860;SDS011;4969;52.304;4.968;2024-01-11T01:19:30;11.47;;;9.90;;
9860;SDS011;4969;52.304;4.968;2024-01-11T01:21:57;12.17;;;10.90;;
9860;SDS011;4969;52.304;4.968;2024-01-11T01:24:24;11.13;;;10.00;;
9860;SDS011;4969;52.304;4.968;2024-01-11T01:26:50;13.03;;;10.73;;
9860;SDS011;4969;52.304;4.968;2024-01-11T01:29:18;12.87;;;11.20;;
9860;SDS011;4969;52.304;4.968;2024-01-11T01:31:45;13.60;;;11.27;;
9860;SDS011;4969;52.304;4.968;2024-01-11T01:34:11;12.47;;;11.20;;
9860;SDS011;4969;52.304;4.968;2024-01-11T01:36:40;12.80;;;11.40;;
9860;SDS011;4969;52.304;4.968;2024-01-11T01:39:06;12.20;;;11.00;;
9860;SDS011;4969;52.304;4.968;2024-01-11T01:41:33;13.57;;;11.00;;
9860;SDS011;4969;52.304;4.968;2024-01-11T01:44:00;11.37;;;10.30;;
9860;SDS011;4969;52.304;4.968;2024-01-11T01:46:28;14.50;;;12.03;;
9860;SDS011;4969;52.304;4.968;2024-01-11T01:48:55;13.53;;;12.13;;
9860;SDS011;4969;52.304;4.968;2024-01-11T01:51:24;12.83;;;11.53;;
9860;SDS011;4969;52.304;4.968;2024-01-11T01:53:52;13.80;;;12.40;;
9860;SDS011;4969;52.304;4.968;2024-01-11T01:56:20;14.13;;;12.63;;
9860;SDS011;4969;52.304;4.968;2024-01-11T01:58:47;13.93;;;12.53;;
9860;SDS011;4969;52.304;4.968;2024-01-11T02:01:16;15.00;;;12.37;;
9860;SDS011;4969;52.304;4.968;2024-01-11T02:03:46;14.07;;;12.13;;
9860;SDS011;4969;52.304;4.968;2024-01-11T02:06:15;13.67;;;12.37;;
9860;SDS011;4969;52.304;4.968;2024-01-11T02:08:42;13.83;;;12.43;;
9860;SDS011;4969;52.304;4.968;2024-01-11T02:11:09;11.30;;;10.20;;
9860;SDS011;4969;52.304;4.968;2024-01-11T02:13:37;12.10;;;10.90;;
9860;SDS011;4969;52.304;4.968;2024-01-11T02:16:03;12.70;;;10.23;;
9860;SDS011;4969;52.304;4.968;2024-01-11T02:18:32;12.47;;;11.27;;
9860;SDS011;4969;52.304;4.968;2024-01-11T02:21:00;12.10;;;10.90;;
9860;SDS011;4969;52.304;4.968;2024-01-11T02:23:29;11.97;;;10.77;;
9860;SDS011;4969;52.304;4.968;2024-01-11T02:25:57;10.43;;;9.43;;
9860;SDS011;4969;52.304;4.968;2024-01-11T02:28:24;12.10;;;10.90;;
9860;SDS011;4969;52.304;4.968;2024-01-11T02:30:50;14.00;;;11.93;;
9860;SDS011;4969;52.304;4.968;2024-01-11T02:33:17;12.43;;;11.17;;
9860;SDS011;4969;52.304;4.968;2024-01-11T02:35:43;11.80;;;10.63;;
9860;SDS011;4969;52.304;4.968;2024-01-11T02:38:10;13.97;;;12.57;;
9860;SDS011;4969;52.304;4.968;2024-01-11T02:40:37;13.40;;;11.87;;
9860;SDS011;4969;52.304;4.968;2024-01-11T02:43:09;13.10;;;11.80;;
9860;SDS011;4969;52.304;4.968;2024-01-11T02:45:36;14.20;;;12.73;;
9860;SDS011;4969;52.304;4.968;2024-01-11T02:48:03;13.83;;;12.53;;
9860;SDS011;4969;52.304;4.968;2024-01-11T02:50:30;13.57;;;12.17;;
9860;SDS011;4969;52.304;4.968;2024-01-11T02:52:56;13.63;;;12.30;;
9860;SDS011;4969;52.304;4.968;2024-01-11T02:55:23;14.70;;;13.20;;
9860;SDS011;4969;52.304;4.968;2024-01-11T02:57:49;15.10;;;13.60;;
9860;SDS011;4969;52.304;4.968;2024-01-11T03:00:17;15.50;;;13.93;;
9860;SDS011;4969;52.304;4.968;2024-01-11T03:02:44;14.63;;;13.07;;
9860;SDS011;4969;52.304;4.968;2024-01-11T03:05:10;15.17;;;13.57;;
9860;SDS011;4969;52.304;4.968;2024-01-11T03:07:36;15.37;;;13.77;;
9860;SDS011;4969;52.304;4.968;2024-01-11T03:10:04;16.40;;;14.07;;
9860;SDS011;4969;52.304;4.968;2024-01-11T03:12:31;16.83;;;15.10;;
9860;SDS011;4969;52.304;4.968;2024-01-11T03:14:58;14.97;;;13.47;;
9860;SDS011;4969;52.304;4.968;2024-01-11T03:17:26;15.17;;;13.67;;
9860;SDS011;4969;52.304;4.968;2024-01-11T03:19:53;14.77;;;13.30;;
9860;SDS011;4969;52.304;4.968;2024-01-11T03:22:19;15.50;;;13.87;;
9860;SDS011;4969;52.304;4.968;2024-01-11T03:24:46;16.57;;;14.97;;
9860;SDS011;4969;52.304;4.968;2024-01-11T03:27:12;15.40;;;13.80;;
9860;SDS011;4969;52.304;4.968;2024-01-11T03:29:39;16.53;;;14.93;;
9860;SDS011;4969;52.304;4.968;2024-01-11T03:32:06;15.57;;;14.07;;
9860;SDS011;4969;52.304;4.968;2024-01-11T03:34:34;15.40;;;13.80;;
9860;SDS011;4969;52.304;4.968;2024-01-11T03:37:00;16.13;;;14.43;;
9860;SDS011;4969;52.304;4.968;2024-01-11T03:39:27;16.07;;;14.47;;
9860;SDS011;4969;52.304;4.968;2024-01-11T03:41:53;16.87;;;15.10;;
9860;SDS011;4969;52.304;4.968;2024-01-11T03:44:20;15.23;;;13.67;;
9860;SDS011;4969;52.304;4.968;2024-01-11T03:46:47;16.57;;;14.87;;
9860;SDS011;4969;52.304;4.968;2024-01-11T03:49:13;18.13;;;16.27;;
9860;SDS011;4969;52.304;4.968;2024-01-11T03:51:41;14.17;;;12.83;;
9860;SDS011;4969;52.304;4.968;2024-01-11T03:54:08;16.13;;;14.53;;
9860;SDS011;4969;52.304;4.968;2024-01-11T03:56:36;14.87;;;13.37;;
9860;SDS011;4969;52.304;4.968;2024-01-11T03:59:04;15.60;;;14.10;;
9860;SDS011;4969;52.304;4.968;2024-01-11T04:01:31;17.60;;;15.90;;
9860;SDS011;4969;52.304;4.968;2024-01-11T04:03:57;16.53;;;14.90;;
9860;SDS011;4969;52.304;4.968;2024-01-11T04:06:24;17.10;;;15.33;;
9860;SDS011;4969;52.304;4.968;2024-01-11T04:08:52;18.57;;;16.53;;
9860;SDS011;4969;52.304;4.968;2024-01-11T04:11:19;17.47;;;15.67;;
9860;SDS011;4969;52.304;4.968;2024-01-11T04:13:46;18.57;;;16.73;;
9860;SDS011;4969;52.304;4.968;2024-01-11T04:16:12;19.47;;;17.47;;
9860;SDS011;4969;52.304;4.968;2024-01-11T04:18:39;19.10;;;17.20;;
9860;SDS011;4969;52.304;4.968;2024-01-11T04:21:06;19.50;;;17.50;;
9860;SDS011;4969;52.304;4.968;2024-01-11T04:23:32;16.47;;;14.80;;
9860;SDS011;4969;52.304;4.968;2024-01-11T04:26:00;19.23;;;17.33;;
9860;SDS011;4969;52.304;4.968;2024-01-11T04:28:27;16.67;;;15.07;;
9860;SDS011;4969;52.304;4.968;2024-01-11T04:30:54;18.10;;;16.27;;
9860;SDS011;4969;52.304;4.968;2024-01-11T04:33:20;19.17;;;17.27;;
9860;SDS011;4969;52.304;4.968;2024-01-11T04:35:47;19.03;;;17.13;;
9860;SDS011;4969;52.304;4.968;2024-01-11T04:38:13;20.40;;;18.30;;
9860;SDS011;4969;52.304;4.968;2024-01-11T04:40:40;19.73;;;17.73;;
9860;SDS011;4969;52.304;4.968;2024-01-11T04:43:08;17.17;;;15.50;;
9860;SDS011;4969;52.304;4.968;2024-01-11T04:45:35;17.90;;;16.17;;
9860;SDS011;4969;52.304;4.968;2024-01-11T04:48:02;17.57;;;15.87;;
9860;SDS011;4969;52.304;4.968;2024-01-11T04:50:29;17.27;;;15.57;;
9860;SDS011;4969;52.304;4.968;2024-01-11T04:52:55;17.50;;;15.70;;
9860;SDS011;4969;52.304;4.968;2024-01-11T04:55:22;19.90;;;17.87;;
9860;SDS011;4969;52.304;4.968;2024-01-11T04:57:48;17.97;;;16.17;;
9860;SDS011;4969;52.304;4.968;2024-01-11T05:00:16;19.57;;;17.57;;
9860;SDS011;4969;52.304;4.968;2024-01-11T05:02:43;17.07;;;15.37;;
9860;SDS011;4969;52.304;4.968;2024-01-11T05:05:10;20.30;;;18.30;;
9860;SDS011;4969;52.304;4.968;2024-01-11T05:07:37;20.50;;;18.47;;
9860;SDS011;4969;52.304;4.968;2024-01-11T05:10:03;20.37;;;18.37;;
9860;SDS011;4969;52.304;4.968;2024-01-11T05:12:31;19.00;;;16.97;;
9860;SDS011;4969;52.304;4.968;2024-01-11T05:14:57;21.57;;;19.40;;
9860;SDS011;4969;52.304;4.968;2024-01-11T05:17:25;22.90;;;20.70;;
9860;SDS011;4969;52.304;4.968;2024-01-11T05:19:52;19.53;;;17.67;;
9860;SDS011;4969;52.304;4.968;2024-01-11T05:22:18;20.33;;;18.30;;
9860;SDS011;4969;52.304;4.968;2024-01-11T05:24:46;20.13;;;17.90;;
9860;SDS011;4969;52.304;4.968;2024-01-11T05:27:13;18.73;;;16.83;;
9860;SDS011;4969;52.304;4.968;2024-01-11T05:29:39;17.47;;;15.77;;
9860;SDS011;4969;52.304;4.968;2024-01-11T05:32:06;22.80;;;20.40;;
9860;SDS011;4969;52.304;4.968;2024-01-11T05:34:34;21.33;;;19.13;;
9860;SDS011;4969;52.304;4.968;2024-01-11T05:37:00;20.50;;;18.37;;
9860;SDS011;4969;52.304;4.968;2024-01-11T05:39:27;22.17;;;19.97;;
9860;SDS011;4969;52.304;4.968;2024-01-11T05:41:53;22.13;;;19.93;;
9860;SDS011;4969;52.304;4.968;2024-01-11T05:44:20;19.40;;;17.40;;
9860;SDS011;4969;52.304;4.968;2024-01-11T05:46:46;19.20;;;17.30;;
9860;SDS011;4969;52.304;4.968;2024-01-11T05:49:13;20.93;;;18.80;;
9860;SDS011;4969;52.304;4.968;2024-01-11T05:51:41;22.07;;;19.77;;
9860;SDS011;4969;52.304;4.968;2024-01-11T05:54:08;23.40;;;21.00;;
9860;SDS011;4969;52.304;4.968;2024-01-11T05:56:34;21.83;;;19.60;;
9860;SDS011;4969;52.304;4.968;2024-01-11T05:59:01;22.40;;;20.13;;
9860;SDS011;4969;52.304;4.968;2024-01-11T06:01:27;21.37;;;19.13;;
9860;SDS011;4969;52.304;4.968;2024-01-11T06:03:54;23.07;;;20.67;;
9860;SDS011;4969;52.304;4.968;2024-01-11T06:06:20;22.87;;;20.50;;
9860;SDS011;4969;52.304;4.968;2024-01-11T06:08:48;20.33;;;18.10;;
9860;SDS011;4969;52.304;4.968;2024-01-11T06:11:15;18.60;;;16.70;;
9860;SDS011;4969;52.304;4.968;2024-01-11T06:13:43;22.07;;;19.77;;
9860;SDS011;4969;52.304;4.968;2024-01-11T06:16:09;20.70;;;18.60;;
9860;SDS011;4969;52.304;4.968;2024-01-11T06:18:36;22.87;;;20.47;;
9860;SDS011;4969;52.304;4.968;2024-01-11T06:21:03;23.30;;;20.90;;
9860;SDS011;4969;52.304;4.968;2024-01-11T06:23:30;23.50;;;21.00;;
9860;SDS011;4969;52.304;4.968;2024-01-11T06:25:58;20.17;;;18.20;;
9860;SDS011;4969;52.304;4.968;2024-01-11T06:28:24;19.13;;;17.13;;
9860;SDS011;4969;52.304;4.968;2024-01-11T06:30:51;18.70;;;16.80;;
9860;SDS011;4969;52.304;4.968;2024-01-11T06:33:18;19.93;;;17.87;;
9860;SDS011;4969;52.304;4.968;2024-01-11T06:35:45;21.43;;;19.33;;
9860;SDS011;4969;52.304;4.968;2024-01-11T06:38:12;18.17;;;16.30;;
9860;SDS011;4969;52.304;4.968;2024-01-11T06:40:38;21.50;;;19.20;;
9860;SDS011;4969;52.304;4.968;2024-01-11T06:43:06;21.60;;;19.40;;
9860;SDS011;4969;52.304;4.968;2024-01-11T06:45:33;18.73;;;16.93;;
9860;SDS011;4969;52.304;4.968;2024-01-11T06:48:00;21.50;;;19.20;;
9860;SDS011;4969;52.304;4.968;2024-01-11T06:50:26;23.07;;;20.63;;
9860;SDS011;4969;52.304;4.968;2024-01-11T06:52:53;23.03;;;20.60;;
9860;SDS011;4969;52.304;4.968;2024-01-11T06:55:20;20.03;;;18.03;;
9860;SDS011;4969;52.304;4.968;2024-01-11T06:57:46;23.03;;;20.53;;
9860;SDS011;4969;52.304;4.968;2024-01-11T07:00:15;21.60;;;18.67;;
9860;SDS011;4969;52.304;4.968;2024-01-11T07:02:42;20.13;;;18.07;;
9860;SDS011;4969;52.304;4.968;2024-01-11T07:05:08;17.30;;;15.43;;
9860;SDS011;4969;52.304;4.968;2024-01-11T07:07:35;21.97;;;19.20;;
9860;SDS011;4969;52.304;4.968;2024-01-11T07:10:02;22.40;;;20.00;;
9860;SDS011;4969;52.304;4.968;2024-01-11T07:12:30;21.70;;;19.40;;
9860;SDS011;4969;52.304;4.968;2024-01-11T07:14:57;19.23;;;17.30;;
9860;SDS011;4969;52.304;4.968;2024-01-11T07:17:25;20.67;;;18.57;;
9860;SDS011;4969;52.304;4.968;2024-01-11T07:19:51;18.73;;;16.83;;
9860;SDS011;4969;52.304;4.968;2024-01-11T07:22:18;23.70;;;19.17;;
9860;SDS011;4969;52.304;4.968;2024-01-11T07:24:44;19.63;;;17.63;;
9860;SDS011;4969;52.304;4.968;2024-01-11T07:27:11;20.70;;;18.50;;
9860;SDS011;4969;52.304;4.968;2024-01-11T07:29:38;18.47;;;16.30;;
9860;SDS011;4969;52.304;4.968;2024-01-11T07:32:05;19.80;;;17.73;;
9860;SDS011;4969;52.304;4.968;2024-01-11T07:34:33;19.33;;;17.27;;
9860;SDS011;4969;52.304;4.968;2024-01-11T07:36:59;19.57;;;17.47;;
9860;SDS011;4969;52.304;4.968;2024-01-11T07:39:26;20.37;;;18.20;;
9860;SDS011;4969;52.304;4.968;2024-01-11T07:41:52;19.23;;;17.20;;
9860;SDS011;4969;52.304;4.968;2024-01-11T07:44:19;21.27;;;18.97;;
9860;SDS011;4969;52.304;4.968;2024-01-11T07:46:46;18.97;;;17.07;;
9860;SDS011;4969;52.304;4.968;2024-01-11T07:49:12;18.53;;;16.63;;
9860;SDS011;4969;52.304;4.968;2024-01-11T07:51:40;19.83;;;17.73;;
9860;SDS011;4969;52.304;4.968;2024-01-11T07:54:07;18.63;;;16.63;;
9860;SDS011;4969;52.304;4.968;2024-01-11T07:56:33;19.63;;;17.63;;
9860;SDS011;4969;52.304;4.968;2024-01-11T07:59:00;20.00;;;17.90;;
9860;SDS011;4969;52.304;4.968;2024-01-11T08:01:26;22.03;;;19.30;;
9860;SDS011;4969;52.304;4.968;2024-01-11T08:03:53;21.20;;;19.00;;
9860;SDS011;4969;52.304;4.968;2024-01-11T08:06:20;21.40;;;19.20;;
9860;SDS011;4969;52.304;4.968;2024-01-11T08:08:48;20.93;;;18.73;;
9860;SDS011;4969;52.304;4.968;2024-01-11T08:11:16;19.53;;;17.53;;
9860;SDS011;4969;52.304;4.968;2024-01-11T08:13:43;17.30;;;15.30;;
9860;SDS011;4969;52.304;4.968;2024-01-11T08:16:14;18.20;;;16.30;;
9860;SDS011;4969;52.304;4.968;2024-01-11T08:18:41;18.60;;;16.73;;
9860;SDS011;4969;52.304;4.968;2024-01-11T08:21:08;15.87;;;14.17;;
9860;SDS011;4969;52.304;4.968;2024-01-11T08:23:36;16.27;;;14.57;;
9860;SDS011;4969;52.304;4.968;2024-01-11T08:26:05;14.10;;;12.70;;
9860;SDS011;4969;52.304;4.968;2024-01-11T08:28:33;16.03;;;14.30;;
9860;SDS011;4969;52.304;4.968;2024-01-11T08:31:00;14.87;;;13.37;;
9860;SDS011;4969;52.304;4.968;2024-01-11T08:33:29;15.30;;;13.83;;
9860;SDS011;4969;52.304;4.968;2024-01-11T08:35:56;15.23;;;13.63;;
9860;SDS011;4969;52.304;4.968;2024-01-11T08:38:22;16.67;;;14.90;;
9860;SDS011;4969;52.304;4.968;2024-01-11T08:40:50;14.37;;;12.93;;
9860;SDS011;4969;52.304;4.968;2024-01-11T08:43:18;16.93;;;15.23;;
9860;SDS011;4969;52.304;4.968;2024-01-11T08:45:44;14.33;;;12.83;;
9860;SDS011;4969;52.304;4.968;2024-01-11T08:48:11;13.57;;;12.27;;
9860;SDS011;4969;52.304;4.968;2024-01-11T08:50:38;13.77;;;12.47;;
9860;SDS011;4969;52.304;4.968;2024-01-11T08:53:05;13.57;;;12.27;;
9860;SDS011;4969;52.304;4.968;2024-01-11T08:55:31;13.33;;;11.90;;
9860;SDS011;4969;52.304;4.968;2024-01-11T08:57:58;12.33;;;11.20;;
9860;SDS011;4969;52.304;4.968;2024-01-11T09:00:26;13.33;;;12.00;;
9860;SDS011;4969;52.304;4.968;2024-01-11T09:02:52;13.30;;;12.07;;
9860;SDS011;4969;52.304;4.968;2024-01-11T09:05:19;13.17;;;11.87;;
9860;SDS011;4969;52.304;4.968;2024-01-11T09:07:46;12.87;;;11.63;;
9860;SDS011;4969;52.304;4.968;2024-01-11T09:10:13;14.43;;;12.93;;
9860;SDS011;4969;52.304;4.968;2024-01-11T09:12:39;14.03;;;12.73;;
9860;SDS011;4969;52.304;4.968;2024-01-11T09:15:06;13.77;;;12.30;;
9860;SDS011;4969;52.304;4.968;2024-01-11T09:17:34;12.80;;;11.60;;
9860;SDS011;4969;52.304;4.968;2024-01-11T09:20:01;10.40;;;9.30;;
9860;SDS011;4969;52.304;4.968;2024-01-11T09:22:28;12.47;;;11.27;;
9860;SDS011;4969;52.304;4.968;2024-01-11T09:24:55;11.67;;;10.47;;
9860;SDS011;4969;52.304;4.968;2024-01-11T09:27:21;11.40;;;10.30;;
9860;SDS011;4969;52.304;4.968;2024-01-11T09:29:48;13.07;;;11.77;;
9860;SDS011;4969;52.304;4.968;2024-01-11T09:32:14;13.63;;;12.33;;
9860;SDS011;4969;52.304;4.968;2024-01-11T09:34:41;13.03;;;11.63;;
9860;SDS011;4969;52.304;4.968;2024-01-11T09:37:10;12.90;;;11.70;;
9860;SDS011;4969;52.304;4.968;2024-01-11T09:39:36;11.57;;;10.50;;
9860;SDS011;4969;52.304;4.968;2024-01-11T09:42:05;12.80;;;11.50;;
9860;SDS011;4969;52.304;4.968;2024-01-11T09:44:34;12.43;;;11.30;;
9860;SDS011;4969;52.304;4.968;2024-01-11T09:47:02;13.70;;;12.43;;
9860;SDS011;4969;52.304;4.968;2024-01-11T09:49:31;14.67;;;13.27;;
9860;SDS011;4969;52.304;4.968;2024-01-11T09:52:01;14.80;;;13.20;;
9860;SDS011;4969;52.304;4.968;2024-01-11T09:54:28;13.77;;;12.47;;
9860;SDS011;4969;52.304;4.968;2024-01-11T09:56:55;13.07;;;11.77;;
9860;SDS011;4969;52.304;4.968;2024-01-11T09:59:25;13.63;;;12.33;;
9860;SDS011;4969;52.304;4.968;2024-01-11T10:01:52;13.23;;;11.93;;
9860;SDS011;4969;52.304;4.968;2024-01-11T10:04:18;13.90;;;12.43;;
9860;SDS011;4969;52.304;4.968;2024-01-11T10:06:45;14.00;;;12.67;;
9860;SDS011;4969;52.304;4.968;2024-01-11T10:09:14;14.70;;;13.20;;
9860;SDS011;4969;52.304;4.968;2024-01-11T10:11:41;14.27;;;12.87;;
9860;SDS011;4969;52.304;4.968;2024-01-11T10:14:08;14.50;;;13.10;;
9860;SDS011;4969;52.304;4.968;2024-01-11T10:16:38;15.27;;;13.13;;
9860;SDS011;4969;52.304;4.968;2024-01-11T10:19:04;15.33;;;13.73;;
9860;SDS011;4969;52.304;4.968;2024-01-11T10:21:31;15.00;;;13.57;;
9860;SDS011;4969;52.304;4.968;2024-01-11T10:23:57;14.37;;;13.07;;
9860;SDS011;4969;52.304;4.968;2024-01-11T10:26:29;15.37;;;13.57;;
9860;SDS011;4969;52.304;4.968;2024-01-11T10:28:58;14.70;;;13.33;;
9860;SDS011;4969;52.304;4.968;2024-01-11T10:31:27;15.27;;;13.77;;
9860;SDS011;4969;52.304;4.968;2024-01-11T10:33:54;14.57;;;13.27;;
9860;SDS011;4969;52.304;4.968;2024-01-11T10:36:21;15.80;;;14.20;;
9860;SDS011;4969;52.304;4.968;2024-01-11T10:38:48;15.43;;;13.93;;
9860;SDS011;4969;52.304;4.968;2024-01-11T10:41:17;15.33;;;13.83;;
9860;SDS011;4969;52.304;4.968;2024-01-11T10:43:47;15.17;;;13.57;;
9860;SDS011;4969;52.304;4.968;2024-01-11T10:46:14;14.53;;;13.20;;
9860;SDS011;4969;52.304;4.968;2024-01-11T10:48:42;15.60;;;14.20;;
9860;SDS011;4969;52.304;4.968;2024-01-11T10:51:10;15.37;;;13.93;;
9860;SDS011;4969;52.304;4.968;2024-01-11T10:53:43;16.30;;;14.70;;
9860;SDS011;4969;52.304;4.968;2024-01-11T10:56:11;15.00;;;13.50;;
9860;SDS011;4969;52.304;4.968;2024-01-11T10:58:39;15.07;;;13.67;;
9860;SDS011;4969;52.304;4.968;2024-01-11T11:01:08;15.70;;;14.10;;
9860;SDS011;4969;52.304;4.968;2024-01-11T11:03:36;15.10;;;13.60;;
9860;SDS011;4969;52.304;4.968;2024-01-11T11:06:04;15.40;;;13.85;;
9860;SDS011;4969;52.304;4.968;2024-01-11T11:08:32;13.00;;;11.70;;
9860;SDS011;4969;52.304;4.968;2024-01-11T11:11:00;14.03;;;12.73;;
9860;SDS011;4969;52.304;4.968;2024-01-11T11:13:29;13.67;;;12.37;;
9860;SDS011;4969;52.304;4.968;2024-01-11T11:15:55;13.33;;;12.13;;
9860;SDS011;4969;52.304;4.968;2024-01-11T11:18:24;13.97;;;12.67;;
9860;SDS011;4969;52.304;4.968;2024-01-11T11:20:51;14.17;;;12.87;;
9860;SDS011;4969;52.304;4.968;2024-01-11T11:23:19;13.03;;;11.83;;
9860;SDS011;4969;52.304;4.968;2024-01-11T11:25:46;9.90;;;9.00;;
9860;SDS011;4969;52.304;4.968;2024-01-11T11:28:15;9.37;;;8.50;;
9860;SDS011;4969;52.304;4.968;2024-01-11T11:30:43;12.90;;;11.43;;
9860;SDS011;4969;52.304;4.968;2024-01-11T11:33:10;11.67;;;10.57;;
9860;SDS011;4969;52.304;4.968;2024-01-11T11:35:38;12.33;;;11.13;;
9860;SDS011;4969;52.304;4.968;2024-01-11T11:38:05;10.77;;;9.33;;
9860;SDS011;4969;52.304;4.968;2024-01-11T11:40:32;10.03;;;9.10;;
9860;SDS011;4969;52.304;4.968;2024-01-11T11:43:01;10.60;;;9.60;;
9860;SDS011;4969;52.304;4.968;2024-01-11T11:45:30;11.37;;;10.27;;
9860;SDS011;4969;52.304;4.968;2024-01-11T11:47:57;12.00;;;10.23;;
9860;SDS011;4969;52.304;4.968;2024-01-11T11:50:23;11.50;;;10.30;;
9860;SDS011;4969;52.304;4.968;2024-01-11T11:52:54;9.77;;;8.87;;
9860;SDS011;4969;52.304;4.968;2024-01-11T11:55:22;10.53;;;9.50;;
9860;SDS011;4969;52.304;4.968;2024-01-11T11:57:50;10.37;;;9.33;;
9860;SDS011;4969;52.304;4.968;2024-01-11T12:00:17;10.20;;;9.20;;
9860;SDS011;4969;52.304;4.968;2024-01-11T12:02:43;9.10;;;8.23;;
9860;SDS011;4969;52.304;4.968;2024-01-11T12:05:12;10.53;;;9.63;;
9860;SDS011;4969;52.304;4.968;2024-01-11T12:07:39;10.27;;;9.33;;
9860;SDS011;4969;52.304;4.968;2024-01-11T12:10:07;10.37;;;9.30;;
9860;SDS011;4969;52.304;4.968;2024-01-11T12:12:34;9.30;;;8.47;;
9860;SDS011;4969;52.304;4.968;2024-01-11T12:15:02;12.07;;;10.13;;
9860;SDS011;4969;52.304;4.968;2024-01-11T12:17:29;9.20;;;8.23;;
9860;SDS011;4969;52.304;4.968;2024-01-11T12:19:55;10.27;;;9.27;;
9860;SDS011;4969;52.304;4.968;2024-01-11T12:22:22;9.10;;;8.20;;
9860;SDS011;4969;52.304;4.968;2024-01-11T12:24:50;9.07;;;8.23;;
9860;SDS011;4969;52.304;4.968;2024-01-11T12:27:18;9.07;;;7.33;;
9860;SDS011;4969;52.304;4.968;2024-01-11T12:29:45;7.53;;;6.93;;
9860;SDS011;4969;52.304;4.968;2024-01-11T12:32:11;8.90;;;8.10;;
9860;SDS011;4969;52.304;4.968;2024-01-11T12:34:40;7.00;;;6.37;;
9860;SDS011;4969;52.304;4.968;2024-01-11T12:37:08;8.80;;;8.00;;
9860;SDS011;4969;52.304;4.968;2024-01-11T12:39:37;7.03;;;6.33;;
9860;SDS011;4969;52.304;4.968;2024-01-11T12:42:04;8.63;;;7.83;;
9860;SDS011;4969;52.304;4.968;2024-01-11T12:44:32;9.80;;;8.20;;
9860;SDS011;4969;52.304;4.968;2024-01-11T12:47:00;8.90;;;8.10;;
9860;SDS011;4969;52.304;4.968;2024-01-11T12:49:27;7.50;;;6.80;;
9860;SDS011;4969;52.304;4.968;2024-01-11T12:51:54;8.27;;;7.57;;
9860;SDS011;4969;52.304;4.968;2024-01-11T12:54:20;9.30;;;8.40;;
9860;SDS011;4969;52.304;4.968;2024-01-11T12:56:47;8.93;;;8.03;;
9860;SDS011;4969;52.304;4.968;2024-01-11T12:59:15;9.00;;;8.10;;
9860;SDS011;4969;52.304;4.968;2024-01-11T13:01:43;8.87;;;7.97;;
9860;SDS011;4969;52.304;4.968;2024-01-11T13:04:10;9.40;;;8.50;;
9860;SDS011;4969;52.304;4.968;2024-01-11T13:06:36;9.00;;;8.20;;
9860;SDS011;4969;52.304;4.968;2024-01-11T13:09:03;8.90;;;8.03;;
9860;SDS011;4969;52.304;4.968;2024-01-11T13:11:33;9.67;;;8.70;;
9860;SDS011;4969;52.304;4.968;2024-01-11T13:14:00;8.80;;;8.00;;
9860;SDS011;4969;52.304;4.968;2024-01-11T13:16:31;8.33;;;7.57;;
9860;SDS011;4969;52.304;4.968;2024-01-11T13:18:59;8.97;;;8.13;;
9860;SDS011;4969;52.304;4.968;2024-01-11T13:21:26;9.37;;;8.47;;
9860;SDS011;4969;52.304;4.968;2024-01-11T13:23:52;8.07;;;7.37;;
9860;SDS011;4969;52.304;4.968;2024-01-11T13:26:19;9.17;;;8.17;;
9860;SDS011;4969;52.304;4.968;2024-01-11T13:28:46;8.33;;;7.63;;
9860;SDS011;4969;52.304;4.968;2024-01-11T13:31:12;8.73;;;8.00;;
9860;SDS011;4969;52.304;4.968;2024-01-11T13:33:39;9.07;;;8.10;;
9860;SDS011;4969;52.304;4.968;2024-01-11T13:36:07;9.03;;;8.13;;
9860;SDS011;4969;52.304;4.968;2024-01-11T13:38:34;9.80;;;8.13;;
9860;SDS011;4969;52.304;4.968;2024-01-11T13:41:01;9.20;;;8.30;;
9860;SDS011;4969;52.304;4.968;2024-01-11T13:43:27;9.47;;;8.67;;
9860;SDS011;4969;52.304;4.968;2024-01-11T13:45:54;9.50;;;8.43;;
9860;SDS011;4969;52.304;4.968;2024-01-11T13:48:21;10.80;;;9.80;;
9860;SDS011;4969;52.304;4.968;2024-01-11T13:50:47;10.70;;;9.70;;
9860;SDS011;4969;52.304;4.968;2024-01-11T13:53:15;11.50;;;10.40;;
9860;SDS011;4969;52.304;4.968;2024-01-11T13:55:42;9.73;;;8.67;;
9860;SDS011;4969;52.304;4.968;2024-01-11T13:58:08;10.47;;;8.90;;
9860;SDS011;4969;52.304;4.968;2024-01-11T14:00:37;10.70;;;9.70;;
9860;SDS011;4969;52.304;4.968;2024-01-11T14:03:06;10.30;;;9.30;;
9860;SDS011;4969;52.304;4.968;2024-01-11T14:05:33;10.77;;;9.77;;
9860;SDS011;4969;52.304;4.968;2024-01-11T14:08:00;9.50;;;8.60;;
9860;SDS011;4969;52.304;4.968;2024-01-11T14:10:31;11.97;;;10.50;;
9860;SDS011;4969;52.304;4.968;2024-01-11T14:12:59;11.23;;;10.13;;
9860;SDS011;4969;52.304;4.968;2024-01-11T14:15:26;11.07;;;10.10;;
9860;SDS011;4969;52.304;4.968;2024-01-11T14:17:53;10.80;;;9.70;;
9860;SDS011;4969;52.304;4.968;2024-01-11T14:20:20;10.87;;;9.83;;
9860;SDS011;4969;52.304;4.968;2024-01-11T14:22:47;11.20;;;10.10;;
9860;SDS011;4969;52.304;4.968;2024-01-11T14:25:15;11.53;;;10.20;;
9860;SDS011;4969;52.304;4.968;2024-01-11T14:27:43;12.80;;;11.60;;
9860;SDS011;4969;52.304;4.968;2024-01-11T14:30:10;10.20;;;9.20;;
9860;SDS011;4969;52.304;4.968;2024-01-11T14:32:38;13.10;;;11.80;;
9860;SDS011;4969;52.304;4.968;2024-01-11T14:35:06;12.80;;;11.50;;
9860;SDS011;4969;52.304;4.968;2024-01-11T14:37:34;12.43;;;11.33;;
9860;SDS011;4969;52.304;4.968;2024-01-11T14:40:01;14.30;;;12.87;;
9860;SDS011;4969;52.304;4.968;2024-01-11T14:42:28;14.33;;;12.83;;
9860;SDS011;4969;52.304;4.968;2024-01-11T14:44:56;13.97;;;12.57;;
9860;SDS011;4969;52.304;4.968;2024-01-11T14:47:22;10.60;;;9.50;;
9860;SDS011;4969;52.304;4.968;2024-01-11T14:49:49;14.87;;;13.47;;
9860;SDS011;4969;52.304;4.968;2024-01-11T14:52:16;13.57;;;12.27;;